sensor_id;sensor_type;location;lat;lon;timestamp;temperature;humidity
1988;DHT22;12775;46.994;15.498;2023-04-05T00:01:02;2.00;55.30
1988;DHT22;12775;46.994;15.498;2023-04-05T00:03:29;1.80;55.70
1988;DHT22;12775;46.994;15.498;2023-04-05T00:05:56;1.70;56.30
1988;DHT22;12775;46.994;15.498;2023-04-05T00:08:24;1.60;56.60
1988;DHT22;12775;46.994;15.498;2023-04-05T00:10:51;1.50;56.80
1988;DHT22;12775;46.994;15.498;2023-04-05T00:13:19;1.40;57.00
1988;DHT22;12775;46.994;15.498;2023-04-05T00:15:46;1.30;57.30
1988;DHT22;12775;46.994;15.498;2023-04-05T00:18:14;1.40;57.00
1988;DHT22;12775;46.994;15.498;2023-04-05T00:20:47;1.30;56.90
1988;DHT22;12775;46.994;15.498;2023-04-05T00:23:15;1.50;56.70
1988;DHT22;12775;46.994;15.498;2023-04-05T00:25:44;1.60;56.40
1988;DHT22;12775;46.994;15.498;2023-04-05T00:28:11;1.70;56.60
1988;DHT22;12775;46.994;15.498;2023-04-05T00:30:38;1.70;56.70
1988;DHT22;12775;46.994;15.498;2023-04-05T00:33:06;1.70;56.70
1988;DHT22;12775;46.994;15.498;2023-04-05T00:35:33;1.80;56.20
1988;DHT22;12775;46.994;15.498;2023-04-05T00:38:00;1.90;56.20
1988;DHT22;12775;46.994;15.498;2023-04-05T00:40:29;2.00;55.00
1988;DHT22;12775;46.994;15.498;2023-04-05T00:42:56;2.00;54.60
1988;DHT22;12775;46.994;15.498;2023-04-05T00:45:23;2.10;55.70
1988;DHT22;12775;46.994;15.498;2023-04-05T00:47:51;2.10;55.50
1988;DHT22;12775;46.994;15.498;2023-04-05T00:50:18;2.20;55.20
1988;DHT22;12775;46.994;15.498;2023-04-05T00:52:46;2.30;54.30
1988;DHT22;12775;46.994;15.498;2023-04-05T00:55:13;2.30;55.50
1988;DHT22;12775;46.994;15.498;2023-04-05T00:57:40;2.30;55.40
1988;DHT22;12775;46.994;15.498;2023-04-05T01:00:08;2.30;54.50
1988;DHT22;12775;46.994;15.498;2023-04-05T01:02:43;2.30;54.40
1988;DHT22;12775;46.994;15.498;2023-04-05T01:05:11;2.30;55.00
1988;DHT22;12775;46.994;15.498;2023-04-05T01:07:39;2.30;56.00
1988;DHT22;12775;46.994;15.498;2023-04-05T01:10:05;2.30;55.30
1988;DHT22;12775;46.994;15.498;2023-04-05T01:12:32;2.20;55.20
1988;DHT22;12775;46.994;15.498;2023-04-05T01:14:59;2.30;55.00
1988;DHT22;12775;46.994;15.498;2023-04-05T01:17:27;2.10;56.10
1988;DHT22;12775;46.994;15.498;2023-04-05T01:19:56;2.00;56.30
1988;DHT22;12775;46.994;15.498;2023-04-05T01:25:36;1.60;57.20
1988;DHT22;12775;46.994;15.498;2023-04-05T01:28:08;1.60;57.10
1988;DHT22;12775;46.994;15.498;2023-04-05T01:30:31;1.50;57.40
1988;DHT22;12775;46.994;15.498;2023-04-05T01:38:16;1.50;57.30
1988;DHT22;12775;46.994;15.498;2023-04-05T01:40:42;1.50;56.90
1988;DHT22;12775;46.994;15.498;2023-04-05T01:43:12;1.50;58.00
1988;DHT22;12775;46.994;15.498;2023-04-05T01:45:40;1.40;58.30
1988;DHT22;12775;46.994;15.498;2023-04-05T01:48:07;1.30;58.40
1988;DHT22;12775;46.994;15.498;2023-04-05T01:50:34;1.30;58.30
1988;DHT22;12775;46.994;15.498;2023-04-05T01:53:01;1.30;58.40
1988;DHT22;12775;46.994;15.498;2023-04-05T01:55:29;1.30;58.40
1988;DHT22;12775;46.994;15.498;2023-04-05T01:57:56;1.30;58.40
1988;DHT22;12775;46.994;15.498;2023-04-05T02:00:23;1.30;58.80
1988;DHT22;12775;46.994;15.498;2023-04-05T02:02:51;1.20;59.00
1988;DHT22;12775;46.994;15.498;2023-04-05T02:05:18;1.10;59.00
1988;DHT22;12775;46.994;15.498;2023-04-05T02:07:46;1.00;59.60
1988;DHT22;12775;46.994;15.498;2023-04-05T02:10:13;1.00;59.30
1988;DHT22;12775;46.994;15.498;2023-04-05T02:12:42;0.90;59.50
1988;DHT22;12775;46.994;15.498;2023-04-05T02:15:10;0.90;59.50
1988;DHT22;12775;46.994;15.498;2023-04-05T02:17:37;0.90;59.50
1988;DHT22;12775;46.994;15.498;2023-04-05T02:20:06;0.90;59.50
1988;DHT22;12775;46.994;15.498;2023-04-05T02:22:32;1.00;59.30
1988;DHT22;12775;46.994;15.498;2023-04-05T02:24:58;1.00;59.40
1988;DHT22;12775;46.994;15.498;2023-04-05T02:27:25;1.00;59.60
1988;DHT22;12775;46.994;15.498;2023-04-05T02:29:52;1.10;58.30
1988;DHT22;12775;46.994;15.498;2023-04-05T02:32:20;1.10;57.30
1988;DHT22;12775;46.994;15.498;2023-04-05T02:34:47;1.10;56.30
1988;DHT22;12775;46.994;15.498;2023-04-05T02:37:15;1.20;57.00
1988;DHT22;12775;46.994;15.498;2023-04-05T02:39:42;1.20;57.70
1988;DHT22;12775;46.994;15.498;2023-04-05T02:42:10;1.20;57.80
1988;DHT22;12775;46.994;15.498;2023-04-05T02:44:37;1.30;56.50
1988;DHT22;12775;46.994;15.498;2023-04-05T02:47:04;1.30;57.20
1988;DHT22;12775;46.994;15.498;2023-04-05T02:49:32;1.30;58.40
1988;DHT22;12775;46.994;15.498;2023-04-05T02:51:59;1.30;58.70
1988;DHT22;12775;46.994;15.498;2023-04-05T02:54:27;1.30;58.20
1988;DHT22;12775;46.994;15.498;2023-04-05T02:56:55;1.30;58.00
1988;DHT22;12775;46.994;15.498;2023-04-05T02:59:23;1.40;57.90
1988;DHT22;12775;46.994;15.498;2023-04-05T03:01:50;1.30;58.00
1988;DHT22;12775;46.994;15.498;2023-04-05T03:04:17;1.40;57.60
1988;DHT22;12775;46.994;15.498;2023-04-05T03:06:45;1.30;57.50
1988;DHT22;12775;46.994;15.498;2023-04-05T03:09:13;1.30;58.10
1988;DHT22;12775;46.994;15.498;2023-04-05T03:11:40;1.30;57.20
1988;DHT22;12775;46.994;15.498;2023-04-05T03:14:08;1.30;58.40
1988;DHT22;12775;46.994;15.498;2023-04-05T03:16:34;1.20;58.30
1988;DHT22;12775;46.994;15.498;2023-04-05T03:19:01;1.30;57.80
1988;DHT22;12775;46.994;15.498;2023-04-05T03:21:27;1.20;57.60
1988;DHT22;12775;46.994;15.498;2023-04-05T03:23:55;1.20;58.00
1988;DHT22;12775;46.994;15.498;2023-04-05T03:26:23;1.20;57.80
1988;DHT22;12775;46.994;15.498;2023-04-05T03:28:50;1.10;58.60
1988;DHT22;12775;46.994;15.498;2023-04-05T03:31:19;1.10;57.80
1988;DHT22;12775;46.994;15.498;2023-04-05T03:33:46;1.10;56.40
1988;DHT22;12775;46.994;15.498;2023-04-05T03:36:14;1.10;56.30
1988;DHT22;12775;46.994;15.498;2023-04-05T03:38:43;1.10;56.20
1988;DHT22;12775;46.994;15.498;2023-04-05T03:41:09;1.10;56.30
1988;DHT22;12775;46.994;15.498;2023-04-05T03:43:36;1.10;56.70
1988;DHT22;12775;46.994;15.498;2023-04-05T03:46:03;1.00;58.00
1988;DHT22;12775;46.994;15.498;2023-04-05T03:48:31;1.00;56.90
1988;DHT22;12775;46.994;15.498;2023-04-05T03:50:58;1.00;56.90
1988;DHT22;12775;46.994;15.498;2023-04-05T03:53:25;1.00;56.70
1988;DHT22;12775;46.994;15.498;2023-04-05T03:55:53;1.00;57.30
1988;DHT22;12775;46.994;15.498;2023-04-05T03:58:20;1.00;57.80
1988;DHT22;12775;46.994;15.498;2023-04-05T04:00:47;0.90;57.70
1988;DHT22;12775;46.994;15.498;2023-04-05T04:03:15;0.90;56.40
1988;DHT22;12775;46.994;15.498;2023-04-05T04:05:42;0.90;57.20
1988;DHT22;12775;46.994;15.498;2023-04-05T04:08:10;0.90;57.20
1988;DHT22;12775;46.994;15.498;2023-04-05T04:10:37;0.90;57.40
1988;DHT22;12775;46.994;15.498;2023-04-05T04:13:04;0.90;58.00
1988;DHT22;12775;46.994;15.498;2023-04-05T04:15:32;0.80;57.70
1988;DHT22;12775;46.994;15.498;2023-04-05T04:17:59;0.80;57.90
1988;DHT22;12775;46.994;15.498;2023-04-05T04:20:26;0.70;58.00
1988;DHT22;12775;46.994;15.498;2023-04-05T04:22:54;0.70;58.00
1988;DHT22;12775;46.994;15.498;2023-04-05T04:25:21;0.70;58.40
1988;DHT22;12775;46.994;15.498;2023-04-05T04:27:48;0.70;57.90
1988;DHT22;12775;46.994;15.498;2023-04-05T04:30:16;0.70;57.50
1988;DHT22;12775;46.994;15.498;2023-04-05T04:32:43;0.60;58.00
1988;DHT22;12775;46.994;15.498;2023-04-05T04:35:22;0.60;59.20
1988;DHT22;12775;46.994;15.498;2023-04-05T04:37:53;0.60;57.60
1988;DHT22;12775;46.994;15.498;2023-04-05T04:40:18;0.60;57.50
1988;DHT22;12775;46.994;15.498;2023-04-05T04:42:45;0.50;57.30
1988;DHT22;12775;46.994;15.498;2023-04-05T04:45:14;0.50;57.40
1988;DHT22;12775;46.994;15.498;2023-04-05T04:47:41;0.50;57.40
1988;DHT22;12775;46.994;15.498;2023-04-05T04:50:08;0.50;57.40
1988;DHT22;12775;46.994;15.498;2023-04-05T04:52:34;0.50;59.20
1988;DHT22;12775;46.994;15.498;2023-04-05T04:55:02;0.40;58.30
1988;DHT22;12775;46.994;15.498;2023-04-05T04:57:29;0.40;59.40
1988;DHT22;12775;46.994;15.498;2023-04-05T04:59:56;0.40;59.50
1988;DHT22;12775;46.994;15.498;2023-04-05T05:02:25;0.40;59.40
1988;DHT22;12775;46.994;15.498;2023-04-05T05:04:52;0.30;59.20
1988;DHT22;12775;46.994;15.498;2023-04-05T05:07:20;0.30;59.70
1988;DHT22;12775;46.994;15.498;2023-04-05T05:09:47;0.30;59.90
1988;DHT22;12775;46.994;15.498;2023-04-05T05:12:14;0.30;60.00
1988;DHT22;12775;46.994;15.498;2023-04-05T05:14:42;0.30;60.30
1988;DHT22;12775;46.994;15.498;2023-04-05T05:17:09;0.30;61.10
1988;DHT22;12775;46.994;15.498;2023-04-05T05:19:36;0.30;60.70
1988;DHT22;12775;46.994;15.498;2023-04-05T05:22:04;0.30;60.40
1988;DHT22;12775;46.994;15.498;2023-04-05T05:24:31;0.40;61.80
1988;DHT22;12775;46.994;15.498;2023-04-05T05:26:58;0.30;61.90
1988;DHT22;12775;46.994;15.498;2023-04-05T05:29:26;0.40;62.40
1988;DHT22;12775;46.994;15.498;2023-04-05T05:31:53;0.50;63.40
1988;DHT22;12775;46.994;15.498;2023-04-05T05:34:21;0.50;65.10
1988;DHT22;12775;46.994;15.498;2023-04-05T05:36:48;0.70;65.70
1988;DHT22;12775;46.994;15.498;2023-04-05T05:39:16;0.90;66.60
1988;DHT22;12775;46.994;15.498;2023-04-05T05:41:46;1.20;66.90
1988;DHT22;12775;46.994;15.498;2023-04-05T05:44:14;1.40;67.00
1988;DHT22;12775;46.994;15.498;2023-04-05T05:46:41;1.60;66.50
1988;DHT22;12775;46.994;15.498;2023-04-05T05:49:08;2.00;67.50
1988;DHT22;12775;46.994;15.498;2023-04-05T05:51:36;2.20;67.40
1988;DHT22;12775;46.994;15.498;2023-04-05T05:54:04;2.40;67.80
1988;DHT22;12775;46.994;15.498;2023-04-05T05:56:31;2.60;69.30
1988;DHT22;12775;46.994;15.498;2023-04-05T05:58:59;2.70;69.30
1988;DHT22;12775;46.994;15.498;2023-04-05T06:01:25;2.70;69.20
1988;DHT22;12775;46.994;15.498;2023-04-05T06:03:53;3.10;66.90
1988;DHT22;12775;46.994;15.498;2023-04-05T06:06:21;3.20;65.30
1988;DHT22;12775;46.994;15.498;2023-04-05T06:08:47;3.30;65.20
1988;DHT22;12775;46.994;15.498;2023-04-05T06:11:16;3.40;65.30
1988;DHT22;12775;46.994;15.498;2023-04-05T06:13:43;3.50;65.20
1988;DHT22;12775;46.994;15.498;2023-04-05T06:16:10;3.40;65.00
1988;DHT22;12775;46.994;15.498;2023-04-05T06:18:36;3.50;65.70
1988;DHT22;12775;46.994;15.498;2023-04-05T06:21:05;3.70;65.60
1988;DHT22;12775;46.994;15.498;2023-04-05T06:23:32;3.80;63.60
1988;DHT22;12775;46.994;15.498;2023-04-05T06:25:59;3.90;63.80
1988;DHT22;12775;46.994;15.498;2023-04-05T06:28:27;4.00;63.50
1988;DHT22;12775;46.994;15.498;2023-04-05T06:30:54;4.20;63.90
1988;DHT22;12775;46.994;15.498;2023-04-05T06:33:21;4.30;64.10
1988;DHT22;12775;46.994;15.498;2023-04-05T06:35:49;4.40;61.90
1988;DHT22;12775;46.994;15.498;2023-04-05T06:38:16;4.50;64.00
1988;DHT22;12775;46.994;15.498;2023-04-05T06:40:44;4.50;58.10
1988;DHT22;12775;46.994;15.498;2023-04-05T06:43:11;4.70;60.70
1988;DHT22;12775;46.994;15.498;2023-04-05T06:45:38;4.70;57.90
1988;DHT22;12775;46.994;15.498;2023-04-05T06:48:06;4.90;60.30
1988;DHT22;12775;46.994;15.498;2023-04-05T06:50:33;5.20;61.00
1988;DHT22;12775;46.994;15.498;2023-04-05T06:53:01;5.30;60.70
1988;DHT22;12775;46.994;15.498;2023-04-05T06:55:28;5.60;59.60
1988;DHT22;12775;46.994;15.498;2023-04-05T06:57:55;5.60;60.50
1988;DHT22;12775;46.994;15.498;2023-04-05T07:00:22;5.80;60.10
1988;DHT22;12775;46.994;15.498;2023-04-05T07:02:50;5.90;60.90
1988;DHT22;12775;46.994;15.498;2023-04-05T07:05:17;6.00;60.20
1988;DHT22;12775;46.994;15.498;2023-04-05T07:07:45;6.40;60.40
1988;DHT22;12775;46.994;15.498;2023-04-05T07:10:13;6.40;55.30
1988;DHT22;12775;46.994;15.498;2023-04-05T07:12:41;6.60;57.00
1988;DHT22;12775;46.994;15.498;2023-04-05T07:15:09;6.80;56.50
1988;DHT22;12775;46.994;15.498;2023-04-05T07:17:36;6.70;56.40
1988;DHT22;12775;46.994;15.498;2023-04-05T07:20:03;6.90;58.70
1988;DHT22;12775;46.994;15.498;2023-04-05T07:22:33;7.30;56.30
1988;DHT22;12775;46.994;15.498;2023-04-05T07:25:01;7.50;55.60
1988;DHT22;12775;46.994;15.498;2023-04-05T07:27:29;7.60;55.90
1988;DHT22;12775;46.994;15.498;2023-04-05T07:29:56;7.60;55.90
1988;DHT22;12775;46.994;15.498;2023-04-05T07:32:23;7.80;54.60
1988;DHT22;12775;46.994;15.498;2023-04-05T07:34:51;8.00;54.30
1988;DHT22;12775;46.994;15.498;2023-04-05T07:37:18;8.10;50.50
1988;DHT22;12775;46.994;15.498;2023-04-05T07:39:45;8.10;53.60
1988;DHT22;12775;46.994;15.498;2023-04-05T07:42:13;8.10;57.50
1988;DHT22;12775;46.994;15.498;2023-04-05T07:44:41;8.20;56.50
1988;DHT22;12775;46.994;15.498;2023-04-05T07:47:09;8.30;56.60
1988;DHT22;12775;46.994;15.498;2023-04-05T07:49:36;8.20;57.00
1988;DHT22;12775;46.994;15.498;2023-04-05T07:52:04;8.30;53.70
1988;DHT22;12775;46.994;15.498;2023-04-05T07:54:31;8.30;57.30
1988;DHT22;12775;46.994;15.498;2023-04-05T07:57:00;8.60;56.90
1988;DHT22;12775;46.994;15.498;2023-04-05T07:59:27;8.80;56.90
1988;DHT22;12775;46.994;15.498;2023-04-05T08:01:55;8.90;52.80
1988;DHT22;12775;46.994;15.498;2023-04-05T08:04:22;9.00;52.40
1988;DHT22;12775;46.994;15.498;2023-04-05T08:06:49;9.30;52.70
1988;DHT22;12775;46.994;15.498;2023-04-05T08:09:17;9.60;52.60
1988;DHT22;12775;46.994;15.498;2023-04-05T08:11:45;9.40;55.50
1988;DHT22;12775;46.994;15.498;2023-04-05T08:14:12;9.70;54.10
1988;DHT22;12775;46.994;15.498;2023-04-05T08:16:40;9.90;54.40
1988;DHT22;12775;46.994;15.498;2023-04-05T08:19:07;10.00;51.40
1988;DHT22;12775;46.994;15.498;2023-04-05T08:21:34;9.80;54.80
1988;DHT22;12775;46.994;15.498;2023-04-05T08:24:02;10.00;50.90
1988;DHT22;12775;46.994;15.498;2023-04-05T08:26:29;10.20;45.90
1988;DHT22;12775;46.994;15.498;2023-04-05T08:28:57;10.40;51.30
1988;DHT22;12775;46.994;15.498;2023-04-05T08:31:26;10.60;47.70
1988;DHT22;12775;46.994;15.498;2023-04-05T08:33:53;10.70;46.90
1988;DHT22;12775;46.994;15.498;2023-04-05T08:36:21;10.70;50.70
1988;DHT22;12775;46.994;15.498;2023-04-05T08:38:48;10.60;52.50
1988;DHT22;12775;46.994;15.498;2023-04-05T08:41:17;10.50;53.60
1988;DHT22;12775;46.994;15.498;2023-04-05T08:44:02;10.60;53.40
1988;DHT22;12775;46.994;15.498;2023-04-05T08:46:31;10.60;53.40
1988;DHT22;12775;46.994;15.498;2023-04-05T08:48:57;10.90;47.10
1988;DHT22;12775;46.994;15.498;2023-04-05T08:51:25;10.80;47.10
1988;DHT22;12775;46.994;15.498;2023-04-05T08:53:53;11.10;51.60
1988;DHT22;12775;46.994;15.498;2023-04-05T08:56:24;11.10;41.90
1988;DHT22;12775;46.994;15.498;2023-04-05T08:58:53;11.10;45.90
1988;DHT22;12775;46.994;15.498;2023-04-05T09:01:17;11.40;48.30
1988;DHT22;12775;46.994;15.498;2023-04-05T09:03:45;11.80;48.40
1988;DHT22;12775;46.994;15.498;2023-04-05T09:06:12;12.00;49.80
1988;DHT22;12775;46.994;15.498;2023-04-05T09:08:40;12.40;48.90
1988;DHT22;12775;46.994;15.498;2023-04-05T09:11:07;12.10;40.90
1988;DHT22;12775;46.994;15.498;2023-04-05T09:13:35;12.20;46.30
1988;DHT22;12775;46.994;15.498;2023-04-05T09:16:02;12.60;45.50
1988;DHT22;12775;46.994;15.498;2023-04-05T09:18:29;13.00;47.10
1988;DHT22;12775;46.994;15.498;2023-04-05T09:21:01;13.30;44.30
1988;DHT22;12775;46.994;15.498;2023-04-05T09:23:28;13.30;46.30
1988;DHT22;12775;46.994;15.498;2023-04-05T09:25:56;13.10;36.40
1988;DHT22;12775;46.994;15.498;2023-04-05T09:28:23;13.30;39.40
1988;DHT22;12775;46.994;15.498;2023-04-05T09:30:50;13.60;46.00
1988;DHT22;12775;46.994;15.498;2023-04-05T09:33:18;13.70;45.10
1988;DHT22;12775;46.994;15.498;2023-04-05T09:35:48;13.60;42.20
1988;DHT22;12775;46.994;15.498;2023-04-05T09:38:13;13.80;45.10
1988;DHT22;12775;46.994;15.498;2023-04-05T09:40:42;14.10;45.80
1988;DHT22;12775;46.994;15.498;2023-04-05T09:43:09;13.90;37.30
1988;DHT22;12775;46.994;15.498;2023-04-05T09:45:39;13.40;45.60
1988;DHT22;12775;46.994;15.498;2023-04-05T09:48:05;13.10;46.70
1988;DHT22;12775;46.994;15.498;2023-04-05T09:50:33;12.90;45.10
1988;DHT22;12775;46.994;15.498;2023-04-05T09:53:05;12.90;48.20
1988;DHT22;12775;46.994;15.498;2023-04-05T09:55:31;13.00;44.00
1988;DHT22;12775;46.994;15.498;2023-04-05T09:57:59;12.80;44.20
1988;DHT22;12775;46.994;15.498;2023-04-05T10:00:27;12.90;48.30
1988;DHT22;12775;46.994;15.498;2023-04-05T10:02:55;12.70;47.50
1988;DHT22;12775;46.994;15.498;2023-04-05T10:05:23;12.70;45.80
1988;DHT22;12775;46.994;15.498;2023-04-05T10:07:49;12.70;45.80
1988;DHT22;12775;46.994;15.498;2023-04-05T10:10:16;12.80;46.30
1988;DHT22;12775;46.994;15.498;2023-04-05T10:12:44;12.90;44.20
1988;DHT22;12775;46.994;15.498;2023-04-05T10:15:11;12.90;48.30
1988;DHT22;12775;46.994;15.498;2023-04-05T10:17:56;13.20;36.00
1988;DHT22;12775;46.994;15.498;2023-04-05T10:20:24;13.60;42.20
1988;DHT22;12775;46.994;15.498;2023-04-05T10:26:07;13.40;45.50
1988;DHT22;12775;46.994;15.498;2023-04-05T10:28:32;13.40;45.50
1988;DHT22;12775;46.994;15.498;2023-04-05T10:31:01;13.70;46.00
1988;DHT22;12775;46.994;15.498;2023-04-05T10:33:30;14.00;43.70
1988;DHT22;12775;46.994;15.498;2023-04-05T10:36:08;14.00;46.00
1988;DHT22;12775;46.994;15.498;2023-04-05T10:38:41;13.90;45.20
1988;DHT22;12775;46.994;15.498;2023-04-05T10:41:08;14.00;43.60
1988;DHT22;12775;46.994;15.498;2023-04-05T10:43:32;14.00;38.20
1988;DHT22;12775;46.994;15.498;2023-04-05T10:45:59;14.00;46.20
1988;DHT22;12775;46.994;15.498;2023-04-05T10:48:53;14.10;45.10
1988;DHT22;12775;46.994;15.498;2023-04-05T10:51:16;14.40;45.50
1988;DHT22;12775;46.994;15.498;2023-04-05T10:53:43;14.80;44.10
1988;DHT22;12775;46.994;15.498;2023-04-05T10:56:11;15.00;43.60
1988;DHT22;12775;46.994;15.498;2023-04-05T10:58:40;15.30;38.30
1988;DHT22;12775;46.994;15.498;2023-04-05T11:01:09;15.60;40.20
1988;DHT22;12775;46.994;15.498;2023-04-05T11:03:40;15.60;42.00
1988;DHT22;12775;46.994;15.498;2023-04-05T11:06:18;15.50;43.00
1988;DHT22;12775;46.994;15.498;2023-04-05T11:08:44;15.50;43.00
1988;DHT22;12775;46.994;15.498;2023-04-05T11:11:12;14.70;38.40
1988;DHT22;12775;46.994;15.498;2023-04-05T11:13:48;14.50;43.40
1988;DHT22;12775;46.994;15.498;2023-04-05T11:16:14;14.50;43.40
1988;DHT22;12775;46.994;15.498;2023-04-05T11:18:43;15.00;40.60
1988;DHT22;12775;46.994;15.498;2023-04-05T11:21:11;14.70;37.80
1988;DHT22;12775;46.994;15.498;2023-04-05T11:26:17;13.60;36.70
1988;DHT22;12775;46.994;15.498;2023-04-05T11:28:44;13.60;36.70
1988;DHT22;12775;46.994;15.498;2023-04-05T11:31:12;14.00;40.10
1988;DHT22;12775;46.994;15.498;2023-04-05T11:33:54;13.60;34.00
1988;DHT22;12775;46.994;15.498;2023-04-05T11:36:30;13.80;35.40
1988;DHT22;12775;46.994;15.498;2023-04-05T11:41:41;14.00;45.10
1988;DHT22;12775;46.994;15.498;2023-04-05T11:44:12;14.40;37.70
1988;DHT22;12775;46.994;15.498;2023-04-05T11:46:37;14.60;41.50
1988;DHT22;12775;46.994;15.498;2023-04-05T11:49:04;14.90;43.00
1988;DHT22;12775;46.994;15.498;2023-04-05T11:51:32;14.80;44.10
1988;DHT22;12775;46.994;15.498;2023-04-05T11:53:59;14.90;42.90
1988;DHT22;12775;46.994;15.498;2023-04-05T11:56:26;14.80;43.00
1988;DHT22;12775;46.994;15.498;2023-04-05T11:58:57;15.20;40.30
1988;DHT22;12775;46.994;15.498;2023-04-05T12:01:24;14.80;34.50
1988;DHT22;12775;46.994;15.498;2023-04-05T12:03:53;14.20;32.90
1988;DHT22;12775;46.994;15.498;2023-04-05T12:06:21;14.00;35.60
1988;DHT22;12775;46.994;15.498;2023-04-05T12:08:48;14.20;41.30
1988;DHT22;12775;46.994;15.498;2023-04-05T12:11:22;14.20;36.60
1988;DHT22;12775;46.994;15.498;2023-04-05T12:13:44;13.70;33.90
1988;DHT22;12775;46.994;15.498;2023-04-05T12:16:11;13.70;34.00
1988;DHT22;12775;46.994;15.498;2023-04-05T12:18:38;13.60;37.20
1988;DHT22;12775;46.994;15.498;2023-04-05T12:21:07;13.40;37.90
1988;DHT22;12775;46.994;15.498;2023-04-05T12:23:34;13.70;35.80
1988;DHT22;12775;46.994;15.498;2023-04-05T12:26:01;14.00;36.40
1988;DHT22;12775;46.994;15.498;2023-04-05T12:29:06;14.00;33.20
1988;DHT22;12775;46.994;15.498;2023-04-05T12:31:33;14.20;36.50
1988;DHT22;12775;46.994;15.498;2023-04-05T12:33:47;14.60;43.20
1988;DHT22;12775;46.994;15.498;2023-04-05T12:36:14;14.50;43.70
1988;DHT22;12775;46.994;15.498;2023-04-05T12:38:41;14.40;34.70
1988;DHT22;12775;46.994;15.498;2023-04-05T12:41:10;14.30;34.60
1988;DHT22;12775;46.994;15.498;2023-04-05T12:43:38;14.60;37.40
1988;DHT22;12775;46.994;15.498;2023-04-05T12:46:08;14.80;42.70
1988;DHT22;12775;46.994;15.498;2023-04-05T12:48:36;15.10;42.30
1988;DHT22;12775;46.994;15.498;2023-04-05T12:51:05;15.10;34.80
1988;DHT22;12775;46.994;15.498;2023-04-05T12:53:31;14.60;35.40
1988;DHT22;12775;46.994;15.498;2023-04-05T12:55:58;13.50;33.70
1988;DHT22;12775;46.994;15.498;2023-04-05T12:58:33;13.20;35.30
1988;DHT22;12775;46.994;15.498;2023-04-05T13:00:59;13.10;38.70
1988;DHT22;12775;46.994;15.498;2023-04-05T13:03:26;12.80;35.50
1988;DHT22;12775;46.994;15.498;2023-04-05T13:05:54;13.20;43.40
1988;DHT22;12775;46.994;15.498;2023-04-05T13:08:21;13.40;37.80
1988;DHT22;12775;46.994;15.498;2023-04-05T13:10:48;13.00;38.80
1988;DHT22;12775;46.994;15.498;2023-04-05T13:13:16;13.10;37.10
1988;DHT22;12775;46.994;15.498;2023-04-05T13:15:43;12.90;34.60
1988;DHT22;12775;46.994;15.498;2023-04-05T13:18:11;12.50;36.70
1988;DHT22;12775;46.994;15.498;2023-04-05T13:20:38;12.60;41.40
1988;DHT22;12775;46.994;15.498;2023-04-05T13:23:05;12.90;38.20
1988;DHT22;12775;46.994;15.498;2023-04-05T13:25:33;13.00;37.60
1988;DHT22;12775;46.994;15.498;2023-04-05T13:28:00;12.90;37.60
1988;DHT22;12775;46.994;15.498;2023-04-05T13:30:28;13.00;38.00
1988;DHT22;12775;46.994;15.498;2023-04-05T13:32:55;12.80;35.40
1988;DHT22;12775;46.994;15.498;2023-04-05T13:35:21;12.70;35.30
1988;DHT22;12775;46.994;15.498;2023-04-05T13:37:48;13.00;36.10
1988;DHT22;12775;46.994;15.498;2023-04-05T13:40:16;12.70;35.60
1988;DHT22;12775;46.994;15.498;2023-04-05T13:42:43;12.50;35.70
1988;DHT22;12775;46.994;15.498;2023-04-05T13:45:12;12.60;37.10
1988;DHT22;12775;46.994;15.498;2023-04-05T13:47:39;12.60;36.80
1988;DHT22;12775;46.994;15.498;2023-04-05T13:50:07;12.70;45.10
1988;DHT22;12775;46.994;15.498;2023-04-05T13:52:35;12.80;36.40
1988;DHT22;12775;46.994;15.498;2023-04-05T13:55:02;12.60;35.40
1988;DHT22;12775;46.994;15.498;2023-04-05T13:57:30;12.50;34.40
1988;DHT22;12775;46.994;15.498;2023-04-05T13:59:57;12.20;35.00
1988;DHT22;12775;46.994;15.498;2023-04-05T14:02:24;12.30;34.40
1988;DHT22;12775;46.994;15.498;2023-04-05T14:04:52;12.10;36.30
1988;DHT22;12775;46.994;15.498;2023-04-05T14:07:19;12.10;41.60
1988;DHT22;12775;46.994;15.498;2023-04-05T14:09:46;12.30;37.80
1988;DHT22;12775;46.994;15.498;2023-04-05T14:12:14;12.50;36.60
1988;DHT22;12775;46.994;15.498;2023-04-05T14:14:41;12.10;35.90
1988;DHT22;12775;46.994;15.498;2023-04-05T14:17:09;11.80;35.40
1988;DHT22;12775;46.994;15.498;2023-04-05T14:19:36;11.60;36.90
1988;DHT22;12775;46.994;15.498;2023-04-05T14:22:03;11.60;36.00
1988;DHT22;12775;46.994;15.498;2023-04-05T14:24:31;11.80;37.60
1988;DHT22;12775;46.994;15.498;2023-04-05T14:26:58;11.80;36.80
1988;DHT22;12775;46.994;15.498;2023-04-05T14:29:26;11.70;36.30
1988;DHT22;12775;46.994;15.498;2023-04-05T14:31:54;11.80;35.00
1988;DHT22;12775;46.994;15.498;2023-04-05T14:34:22;12.10;36.70
1988;DHT22;12775;46.994;15.498;2023-04-05T14:36:49;12.00;36.70
1988;DHT22;12775;46.994;15.498;2023-04-05T14:39:16;12.10;35.10
1988;DHT22;12775;46.994;15.498;2023-04-05T14:41:43;11.70;36.50
1988;DHT22;12775;46.994;15.498;2023-04-05T14:44:11;11.60;36.00
1988;DHT22;12775;46.994;15.498;2023-04-05T14:46:38;11.50;36.30
1988;DHT22;12775;46.994;15.498;2023-04-05T14:49:05;11.50;36.20
1988;DHT22;12775;46.994;15.498;2023-04-05T14:51:33;11.50;36.90
1988;DHT22;12775;46.994;15.498;2023-04-05T14:54:00;11.10;35.10
1988;DHT22;12775;46.994;15.498;2023-04-05T14:56:28;11.00;35.90
1988;DHT22;12775;46.994;15.498;2023-04-05T14:58:55;11.10;35.90
1988;DHT22;12775;46.994;15.498;2023-04-05T15:01:22;11.30;35.70
1988;DHT22;12775;46.994;15.498;2023-04-05T15:03:50;11.50;35.80
1988;DHT22;12775;46.994;15.498;2023-04-05T15:06:17;11.40;35.60
1988;DHT22;12775;46.994;15.498;2023-04-05T15:08:44;11.10;35.50
1988;DHT22;12775;46.994;15.498;2023-04-05T15:11:12;11.00;36.00
1988;DHT22;12775;46.994;15.498;2023-04-05T15:13:39;11.10;36.20
1988;DHT22;12775;46.994;15.498;2023-04-05T15:16:07;10.90;36.10
1988;DHT22;12775;46.994;15.498;2023-04-05T15:18:35;10.80;36.10
1988;DHT22;12775;46.994;15.498;2023-04-05T15:21:02;10.80;36.10
1988;DHT22;12775;46.994;15.498;2023-04-05T15:23:29;10.80;36.50
1988;DHT22;12775;46.994;15.498;2023-04-05T15:25:56;10.50;36.60
1988;DHT22;12775;46.994;15.498;2023-04-05T15:28:24;10.60;37.50
1988;DHT22;12775;46.994;15.498;2023-04-05T15:30:52;10.70;37.50
1988;DHT22;12775;46.994;15.498;2023-04-05T15:33:20;10.50;37.20
1988;DHT22;12775;46.994;15.498;2023-04-05T15:35:47;10.50;37.40
1988;DHT22;12775;46.994;15.498;2023-04-05T15:38:15;10.40;37.10
1988;DHT22;12775;46.994;15.498;2023-04-05T15:40:45;10.30;37.70
1988;DHT22;12775;46.994;15.498;2023-04-05T15:43:10;10.20;37.80
1988;DHT22;12775;46.994;15.498;2023-04-05T15:45:38;10.10;37.50
1988;DHT22;12775;46.994;15.498;2023-04-05T15:48:05;10.10;39.10
1988;DHT22;12775;46.994;15.498;2023-04-05T15:50:32;10.00;37.30
1988;DHT22;12775;46.994;15.498;2023-04-05T15:53:00;10.00;37.80
1988;DHT22;12775;46.994;15.498;2023-04-05T15:55:27;9.90;39.00
1988;DHT22;12775;46.994;15.498;2023-04-05T15:57:54;9.80;39.00
1988;DHT22;12775;46.994;15.498;2023-04-05T16:00:22;9.70;38.40